sensor_id;sensor_type;location;lat;lon;timestamp;P1;durP1;ratioP1;P2;durP2;ratioP2
18693;SDS011;9477;51.414;10.362;2023-02-15T00:01:54;9.50;;;6.07;;
18693;SDS011;9477;51.414;10.362;2023-02-15T00:03:58;9.43;;;5.87;;
18693;SDS011;9477;51.414;10.362;2023-02-15T00:06:02;10.50;;;6.23;;
18693;SDS011;9477;51.414;10.362;2023-02-15T00:08:05;8.80;;;6.20;;
18693;SDS011;9477;51.414;10.362;2023-02-15T00:10:08;9.80;;;6.03;;
18693;SDS011;9477;51.414;10.362;2023-02-15T00:12:13;8.67;;;5.53;;
18693;SDS011;9477;51.414;10.362;2023-02-15T00:14:17;7.60;;;5.47;;
18693;SDS011;9477;51.414;10.362;2023-02-15T00:16:21;8.53;;;5.50;;
18693;SDS011;9477;51.414;10.362;2023-02-15T00:18:24;9.17;;;6.20;;
18693;SDS011;9477;51.414;10.362;2023-02-15T00:20:28;8.27;;;5.83;;
18693;SDS011;9477;51.414;10.362;2023-02-15T00:22:31;9.07;;;6.43;;
18693;SDS011;9477;51.414;10.362;2023-02-15T00:24:34;8.00;;;5.40;;
18693;SDS011;9477;51.414;10.362;2023-02-15T00:26:37;9.13;;;6.33;;
18693;SDS011;9477;51.414;10.362;2023-02-15T00:28:41;8.43;;;6.10;;
18693;SDS011;9477;51.414;10.362;2023-02-15T00:30:43;7.57;;;5.63;;
18693;SDS011;9477;51.414;10.362;2023-02-15T00:32:47;6.80;;;5.37;;
18693;SDS011;9477;51.414;10.362;2023-02-15T00:34:49;8.57;;;5.70;;
18693;SDS011;9477;51.414;10.362;2023-02-15T00:36:54;8.60;;;6.07;;
18693;SDS011;9477;51.414;10.362;2023-02-15T00:38:57;10.47;;;5.93;;
18693;SDS011;9477;51.414;10.362;2023-02-15T00:41:00;7.80;;;5.80;;
18693;SDS011;9477;51.414;10.362;2023-02-15T00:43:04;7.57;;;5.47;;
18693;SDS011;9477;51.414;10.362;2023-02-15T00:45:07;6.80;;;5.10;;
18693;SDS011;9477;51.414;10.362;2023-02-15T00:47:11;7.03;;;5.17;;
18693;SDS011;9477;51.414;10.362;2023-02-15T00:49:13;8.03;;;5.20;;
18693;SDS011;9477;51.414;10.362;2023-02-15T00:51:16;6.90;;;4.93;;
18693;SDS011;9477;51.414;10.362;2023-02-15T00:53:21;7.13;;;5.00;;
18693;SDS011;9477;51.414;10.362;2023-02-15T00:55:24;6.40;;;4.60;;
18693;SDS011;9477;51.414;10.362;2023-02-15T00:57:27;7.50;;;4.80;;
18693;SDS011;9477;51.414;10.362;2023-02-15T00:59:29;7.33;;;4.87;;
18693;SDS011;9477;51.414;10.362;2023-02-15T01:01:32;6.67;;;5.00;;
18693;SDS011;9477;51.414;10.362;2023-02-15T01:03:35;8.10;;;5.60;;
18693;SDS011;9477;51.414;10.362;2023-02-15T01:05:38;7.57;;;4.97;;
18693;SDS011;9477;51.414;10.362;2023-02-15T01:07:41;7.77;;;5.60;;
18693;SDS011;9477;51.414;10.362;2023-02-15T01:09:45;7.03;;;5.10;;
18693;SDS011;9477;51.414;10.362;2023-02-15T01:11:48;7.23;;;5.30;;
18693;SDS011;9477;51.414;10.362;2023-02-15T01:13:51;6.27;;;4.37;;
18693;SDS011;9477;51.414;10.362;2023-02-15T01:15:56;7.23;;;5.13;;
18693;SDS011;9477;51.414;10.362;2023-02-15T01:17:59;6.73;;;5.07;;
18693;SDS011;9477;51.414;10.362;2023-02-15T01:20:01;7.77;;;4.80;;
18693;SDS011;9477;51.414;10.362;2023-02-15T01:22:05;6.90;;;4.73;;
18693;SDS011;9477;51.414;10.362;2023-02-15T01:24:10;7.90;;;4.60;;
18693;SDS011;9477;51.414;10.362;2023-02-15T01:26:16;5.53;;;4.00;;
18693;SDS011;9477;51.414;10.362;2023-02-15T01:28:19;6.67;;;4.93;;
18693;SDS011;9477;51.414;10.362;2023-02-15T01:30:21;5.73;;;4.10;;
18693;SDS011;9477;51.414;10.362;2023-02-15T01:32:24;6.17;;;3.93;;
18693;SDS011;9477;51.414;10.362;2023-02-15T01:34:28;5.50;;;4.03;;
18693;SDS011;9477;51.414;10.362;2023-02-15T01:36:33;5.33;;;3.77;;
18693;SDS011;9477;51.414;10.362;2023-02-15T01:38:36;5.13;;;4.03;;
18693;SDS011;9477;51.414;10.362;2023-02-15T01:40:41;5.83;;;4.17;;
18693;SDS011;9477;51.414;10.362;2023-02-15T01:42:45;5.60;;;4.13;;
18693;SDS011;9477;51.414;10.362;2023-02-15T01:44:52;6.50;;;4.77;;
18693;SDS011;9477;51.414;10.362;2023-02-15T01:46:57;7.60;;;4.77;;
18693;SDS011;9477;51.414;10.362;2023-02-15T01:49:01;8.47;;;5.03;;
18693;SDS011;9477;51.414;10.362;2023-02-15T01:51:06;7.40;;;4.70;;
18693;SDS011;9477;51.414;10.362;2023-02-15T01:53:10;6.97;;;4.83;;
18693;SDS011;9477;51.414;10.362;2023-02-15T01:55:18;6.83;;;4.70;;
18693;SDS011;9477;51.414;10.362;2023-02-15T01:57:23;6.37;;;4.30;;
18693;SDS011;9477;51.414;10.362;2023-02-15T01:59:31;8.50;;;4.90;;
18693;SDS011;9477;51.414;10.362;2023-02-15T02:01:35;6.87;;;4.67;;
18693;SDS011;9477;51.414;10.362;2023-02-15T02:03:41;6.23;;;4.00;;
18693;SDS011;9477;51.414;10.362;2023-02-15T02:05:49;7.80;;;5.07;;
18693;SDS011;9477;51.414;10.362;2023-02-15T02:07:52;6.70;;;4.53;;
18693;SDS011;9477;51.414;10.362;2023-02-15T02:09:58;5.50;;;4.07;;
18693;SDS011;9477;51.414;10.362;2023-02-15T02:12:01;8.40;;;4.73;;
18693;SDS011;9477;51.414;10.362;2023-02-15T02:14:04;6.20;;;4.60;;
18693;SDS011;9477;51.414;10.362;2023-02-15T02:16:11;6.63;;;4.60;;
18693;SDS011;9477;51.414;10.362;2023-02-15T02:18:21;8.07;;;5.40;;
18693;SDS011;9477;51.414;10.362;2023-02-15T02:20:51;8.10;;;5.40;;
18693;SDS011;9477;51.414;10.362;2023-02-15T02:23:24;9.33;;;5.80;;
18693;SDS011;9477;51.414;10.362;2023-02-15T02:25:38;8.60;;;5.57;;
18693;SDS011;9477;51.414;10.362;2023-02-15T02:28:08;7.97;;;5.47;;
18693;SDS011;9477;51.414;10.362;2023-02-15T02:33:17;9.37;;;5.90;;
18693;SDS011;9477;51.414;10.362;2023-02-15T02:35:30;13.73;;;6.13;;
18693;SDS011;9477;51.414;10.362;2023-02-15T02:37:37;8.03;;;5.73;;
18693;SDS011;9477;51.414;10.362;2023-02-15T02:39:54;9.33;;;5.97;;
18693;SDS011;9477;51.414;10.362;2023-02-15T02:42:06;9.23;;;6.10;;
18693;SDS011;9477;51.414;10.362;2023-02-15T02:44:13;9.27;;;5.83;;
18693;SDS011;9477;51.414;10.362;2023-02-15T02:46:22;8.10;;;6.00;;
18693;SDS011;9477;51.414;10.362;2023-02-15T02:48:32;8.23;;;5.43;;
18693;SDS011;9477;51.414;10.362;2023-02-15T02:50:38;7.70;;;5.60;;
18693;SDS011;9477;51.414;10.362;2023-02-15T02:52:42;9.83;;;6.00;;
18693;SDS011;9477;51.414;10.362;2023-02-15T02:54:46;8.50;;;5.63;;
18693;SDS011;9477;51.414;10.362;2023-02-15T02:56:48;9.50;;;5.90;;
18693;SDS011;9477;51.414;10.362;2023-02-15T02:58:54;9.60;;;6.47;;
18693;SDS011;9477;51.414;10.362;2023-02-15T03:01:03;8.17;;;6.00;;
18693;SDS011;9477;51.414;10.362;2023-02-15T03:03:11;11.10;;;6.30;;
18693;SDS011;9477;51.414;10.362;2023-02-15T03:05:18;8.97;;;5.60;;
18693;SDS011;9477;51.414;10.362;2023-02-15T03:07:26;8.83;;;5.80;;
18693;SDS011;9477;51.414;10.362;2023-02-15T03:09:31;9.23;;;5.63;;
18693;SDS011;9477;51.414;10.362;2023-02-15T03:11:43;8.07;;;5.37;;
18693;SDS011;9477;51.414;10.362;2023-02-15T03:13:48;7.33;;;5.03;;
18693;SDS011;9477;51.414;10.362;2023-02-15T03:15:51;8.30;;;5.77;;
18693;SDS011;9477;51.414;10.362;2023-02-15T03:18:14;9.80;;;6.00;;
18693;SDS011;9477;51.414;10.362;2023-02-15T03:20:21;7.57;;;5.23;;
18693;SDS011;9477;51.414;10.362;2023-02-15T03:22:28;8.50;;;5.73;;
18693;SDS011;9477;51.414;10.362;2023-02-15T03:24:34;8.60;;;5.57;;
18693;SDS011;9477;51.414;10.362;2023-02-15T03:26:40;9.60;;;5.60;;
18693;SDS011;9477;51.414;10.362;2023-02-15T03:28:47;6.87;;;4.60;;
18693;SDS011;9477;51.414;10.362;2023-02-15T03:30:53;7.20;;;4.90;;
18693;SDS011;9477;51.414;10.362;2023-02-15T03:33:00;9.73;;;5.93;;
18693;SDS011;9477;51.414;10.362;2023-02-15T03:35:06;11.20;;;5.23;;
18693;SDS011;9477;51.414;10.362;2023-02-15T03:37:13;6.97;;;5.00;;
18693;SDS011;9477;51.414;10.362;2023-02-15T03:39:21;7.30;;;4.77;;
18693;SDS011;9477;51.414;10.362;2023-02-15T03:41:32;6.83;;;4.30;;
18693;SDS011;9477;51.414;10.362;2023-02-15T03:43:40;7.30;;;5.00;;
18693;SDS011;9477;51.414;10.362;2023-02-15T03:45:51;7.43;;;4.43;;
18693;SDS011;9477;51.414;10.362;2023-02-15T03:48:02;6.37;;;4.27;;
18693;SDS011;9477;51.414;10.362;2023-02-15T03:50:07;6.77;;;4.40;;
18693;SDS011;9477;51.414;10.362;2023-02-15T03:52:28;7.57;;;4.90;;
18693;SDS011;9477;51.414;10.362;2023-02-15T03:54:33;6.33;;;4.63;;
18693;SDS011;9477;51.414;10.362;2023-02-15T03:56:48;6.07;;;4.23;;
18693;SDS011;9477;51.414;10.362;2023-02-15T03:59:11;7.03;;;4.40;;
18693;SDS011;9477;51.414;10.362;2023-02-15T04:01:44;7.07;;;4.30;;
18693;SDS011;9477;51.414;10.362;2023-02-15T04:04:01;7.23;;;4.57;;
18693;SDS011;9477;51.414;10.362;2023-02-15T04:06:13;5.77;;;4.30;;
18693;SDS011;9477;51.414;10.362;2023-02-15T04:08:17;6.00;;;4.10;;
18693;SDS011;9477;51.414;10.362;2023-02-15T04:10:20;6.10;;;4.53;;
18693;SDS011;9477;51.414;10.362;2023-02-15T04:12:40;7.50;;;4.63;;
18693;SDS011;9477;51.414;10.362;2023-02-15T04:14:43;7.17;;;4.67;;
18693;SDS011;9477;51.414;10.362;2023-02-15T04:17:06;6.43;;;4.67;;
18693;SDS011;9477;51.414;10.362;2023-02-15T04:19:10;6.87;;;4.50;;
18693;SDS011;9477;51.414;10.362;2023-02-15T04:21:31;7.17;;;4.63;;
18693;SDS011;9477;51.414;10.362;2023-02-15T04:23:52;6.60;;;4.50;;
18693;SDS011;9477;51.414;10.362;2023-02-15T04:26:13;6.43;;;4.40;;
18693;SDS011;9477;51.414;10.362;2023-02-15T04:28:16;7.60;;;4.50;;
18693;SDS011;9477;51.414;10.362;2023-02-15T04:30:20;6.73;;;4.10;;
18693;SDS011;9477;51.414;10.362;2023-02-15T04:32:24;6.27;;;4.13;;
18693;SDS011;9477;51.414;10.362;2023-02-15T04:34:27;5.97;;;4.37;;
18693;SDS011;9477;51.414;10.362;2023-02-15T04:36:30;6.97;;;4.73;;
18693;SDS011;9477;51.414;10.362;2023-02-15T04:38:33;7.63;;;5.17;;
18693;SDS011;9477;51.414;10.362;2023-02-15T04:40:37;6.97;;;4.87;;
18693;SDS011;9477;51.414;10.362;2023-02-15T04:42:40;6.40;;;4.40;;
18693;SDS011;9477;51.414;10.362;2023-02-15T04:44:43;8.40;;;4.87;;
18693;SDS011;9477;51.414;10.362;2023-02-15T04:46:45;5.57;;;4.10;;
18693;SDS011;9477;51.414;10.362;2023-02-15T04:48:48;6.70;;;4.47;;
18693;SDS011;9477;51.414;10.362;2023-02-15T04:50:51;6.73;;;4.43;;
18693;SDS011;9477;51.414;10.362;2023-02-15T04:52:53;6.37;;;4.37;;
18693;SDS011;9477;51.414;10.362;2023-02-15T04:54:56;6.77;;;4.80;;
18693;SDS011;9477;51.414;10.362;2023-02-15T04:57:00;8.67;;;4.80;;
18693;SDS011;9477;51.414;10.362;2023-02-15T04:59:03;6.77;;;4.50;;
18693;SDS011;9477;51.414;10.362;2023-02-15T05:01:06;7.67;;;4.50;;
18693;SDS011;9477;51.414;10.362;2023-02-15T05:03:09;6.63;;;4.40;;
18693;SDS011;9477;51.414;10.362;2023-02-15T05:05:12;8.30;;;5.40;;
18693;SDS011;9477;51.414;10.362;2023-02-15T05:07:16;6.20;;;4.27;;
18693;SDS011;9477;51.414;10.362;2023-02-15T05:09:21;8.33;;;5.17;;
18693;SDS011;9477;51.414;10.362;2023-02-15T05:11:24;8.10;;;5.33;;
18693;SDS011;9477;51.414;10.362;2023-02-15T05:13:28;7.23;;;5.13;;
18693;SDS011;9477;51.414;10.362;2023-02-15T05:15:30;8.43;;;5.23;;
18693;SDS011;9477;51.414;10.362;2023-02-15T05:17:33;7.37;;;5.03;;
18693;SDS011;9477;51.414;10.362;2023-02-15T05:19:36;7.97;;;5.33;;
18693;SDS011;9477;51.414;10.362;2023-02-15T05:21:39;7.00;;;4.87;;
18693;SDS011;9477;51.414;10.362;2023-02-15T05:23:42;7.17;;;5.17;;
18693;SDS011;9477;51.414;10.362;2023-02-15T05:25:48;7.87;;;4.97;;
18693;SDS011;9477;51.414;10.362;2023-02-15T05:28:07;8.20;;;5.53;;
18693;SDS011;9477;51.414;10.362;2023-02-15T05:30:22;6.93;;;4.93;;
18693;SDS011;9477;51.414;10.362;2023-02-15T05:32:25;10.60;;;5.97;;
18693;SDS011;9477;51.414;10.362;2023-02-15T05:34:28;16.27;;;8.73;;
18693;SDS011;9477;51.414;10.362;2023-02-15T05:36:31;13.27;;;7.07;;
18693;SDS011;9477;51.414;10.362;2023-02-15T05:38:34;12.00;;;6.60;;
18693;SDS011;9477;51.414;10.362;2023-02-15T05:40:38;11.03;;;6.00;;
18693;SDS011;9477;51.414;10.362;2023-02-15T05:42:41;11.27;;;5.67;;
18693;SDS011;9477;51.414;10.362;2023-02-15T05:44:44;8.47;;;5.73;;
18693;SDS011;9477;51.414;10.362;2023-02-15T05:46:48;8.60;;;5.63;;
18693;SDS011;9477;51.414;10.362;2023-02-15T05:48:50;9.23;;;5.60;;
18693;SDS011;9477;51.414;10.362;2023-02-15T05:50:56;8.80;;;5.00;;
18693;SDS011;9477;51.414;10.362;2023-02-15T05:53:00;8.63;;;5.40;;
18693;SDS011;9477;51.414;10.362;2023-02-15T05:55:03;7.87;;;5.37;;
18693;SDS011;9477;51.414;10.362;2023-02-15T05:57:07;8.80;;;5.80;;
18693;SDS011;9477;51.414;10.362;2023-02-15T05:59:09;9.20;;;5.00;;
18693;SDS011;9477;51.414;10.362;2023-02-15T06:01:14;8.53;;;5.03;;
18693;SDS011;9477;51.414;10.362;2023-02-15T06:03:20;7.63;;;5.20;;
18693;SDS011;9477;51.414;10.362;2023-02-15T06:05:23;8.90;;;5.33;;
18693;SDS011;9477;51.414;10.362;2023-02-15T06:07:26;7.80;;;5.47;;
18693;SDS011;9477;51.414;10.362;2023-02-15T06:09:29;7.63;;;5.10;;
18693;SDS011;9477;51.414;10.362;2023-02-15T06:11:31;7.07;;;5.03;;
18693;SDS011;9477;51.414;10.362;2023-02-15T06:13:34;8.83;;;5.87;;
18693;SDS011;9477;51.414;10.362;2023-02-15T06:15:39;8.00;;;5.40;;
18693;SDS011;9477;51.414;10.362;2023-02-15T06:17:42;8.80;;;5.20;;
18693;SDS011;9477;51.414;10.362;2023-02-15T06:19:46;6.97;;;4.73;;
18693;SDS011;9477;51.414;10.362;2023-02-15T06:21:49;7.37;;;5.00;;
18693;SDS011;9477;51.414;10.362;2023-02-15T06:23:52;8.63;;;5.20;;
18693;SDS011;9477;51.414;10.362;2023-02-15T06:25:55;10.77;;;6.23;;
18693;SDS011;9477;51.414;10.362;2023-02-15T06:27:57;20.40;;;11.27;;
18693;SDS011;9477;51.414;10.362;2023-02-15T06:30:00;20.43;;;11.27;;
18693;SDS011;9477;51.414;10.362;2023-02-15T06:32:03;15.20;;;8.57;;
18693;SDS011;9477;51.414;10.362;2023-02-15T06:34:06;13.33;;;7.43;;
18693;SDS011;9477;51.414;10.362;2023-02-15T06:36:10;10.67;;;6.40;;
18693;SDS011;9477;51.414;10.362;2023-02-15T06:38:13;12.97;;;6.87;;
18693;SDS011;9477;51.414;10.362;2023-02-15T06:40:16;13.03;;;8.47;;
18693;SDS011;9477;51.414;10.362;2023-02-15T06:42:19;15.17;;;9.00;;
18693;SDS011;9477;51.414;10.362;2023-02-15T06:44:23;9.60;;;6.87;;
18693;SDS011;9477;51.414;10.362;2023-02-15T06:46:25;9.67;;;6.20;;
18693;SDS011;9477;51.414;10.362;2023-02-15T06:48:29;7.00;;;4.83;;
18693;SDS011;9477;51.414;10.362;2023-02-15T06:50:31;6.70;;;4.97;;
18693;SDS011;9477;51.414;10.362;2023-02-15T06:52:35;9.53;;;5.43;;
18693;SDS011;9477;51.414;10.362;2023-02-15T06:54:38;7.83;;;5.07;;
18693;SDS011;9477;51.414;10.362;2023-02-15T06:56:41;7.73;;;5.17;;
18693;SDS011;9477;51.414;10.362;2023-02-15T06:58:44;9.07;;;5.37;;
18693;SDS011;9477;51.414;10.362;2023-02-15T07:00:51;8.77;;;5.00;;
18693;SDS011;9477;51.414;10.362;2023-02-15T07:02:53;7.83;;;5.00;;
18693;SDS011;9477;51.414;10.362;2023-02-15T07:04:58;7.73;;;5.00;;
18693;SDS011;9477;51.414;10.362;2023-02-15T07:07:01;7.23;;;5.30;;
18693;SDS011;9477;51.414;10.362;2023-02-15T07:09:05;9.83;;;6.00;;
18693;SDS011;9477;51.414;10.362;2023-02-15T07:11:08;7.80;;;5.80;;
18693;SDS011;9477;51.414;10.362;2023-02-15T07:13:28;7.07;;;5.33;;
18693;SDS011;9477;51.414;10.362;2023-02-15T07:15:31;8.80;;;5.60;;
18693;SDS011;9477;51.414;10.362;2023-02-15T07:17:34;6.80;;;5.00;;
18693;SDS011;9477;51.414;10.362;2023-02-15T07:19:38;6.93;;;5.17;;
18693;SDS011;9477;51.414;10.362;2023-02-15T07:21:41;7.97;;;4.73;;
18693;SDS011;9477;51.414;10.362;2023-02-15T07:23:45;6.27;;;4.67;;
18693;SDS011;9477;51.414;10.362;2023-02-15T07:25:49;7.27;;;4.63;;
18693;SDS011;9477;51.414;10.362;2023-02-15T07:27:59;7.13;;;4.80;;
18693;SDS011;9477;51.414;10.362;2023-02-15T07:30:04;6.33;;;4.33;;
18693;SDS011;9477;51.414;10.362;2023-02-15T07:32:08;7.27;;;5.27;;
18693;SDS011;9477;51.414;10.362;2023-02-15T07:34:11;13.00;;;8.43;;
18693;SDS011;9477;51.414;10.362;2023-02-15T07:36:14;11.20;;;7.57;;
18693;SDS011;9477;51.414;10.362;2023-02-15T07:38:17;8.20;;;6.00;;
18693;SDS011;9477;51.414;10.362;2023-02-15T07:40:20;7.40;;;4.90;;
18693;SDS011;9477;51.414;10.362;2023-02-15T07:42:25;9.33;;;4.83;;
18693;SDS011;9477;51.414;10.362;2023-02-15T07:44:28;7.03;;;5.03;;
18693;SDS011;9477;51.414;10.362;2023-02-15T07:46:31;7.43;;;5.30;;
18693;SDS011;9477;51.414;10.362;2023-02-15T07:48:34;7.17;;;4.47;;
18693;SDS011;9477;51.414;10.362;2023-02-15T07:50:38;6.10;;;4.53;;
18693;SDS011;9477;51.414;10.362;2023-02-15T07:52:42;6.67;;;4.80;;
18693;SDS011;9477;51.414;10.362;2023-02-15T07:54:45;7.07;;;5.00;;
18693;SDS011;9477;51.414;10.362;2023-02-15T07:56:48;7.20;;;5.20;;
18693;SDS011;9477;51.414;10.362;2023-02-15T07:58:52;8.37;;;4.97;;
18693;SDS011;9477;51.414;10.362;2023-02-15T08:00:56;7.10;;;4.87;;
18693;SDS011;9477;51.414;10.362;2023-02-15T08:03:01;6.23;;;4.83;;
18693;SDS011;9477;51.414;10.362;2023-02-15T08:05:16;7.73;;;4.90;;
18693;SDS011;9477;51.414;10.362;2023-02-15T08:07:20;9.87;;;4.87;;
18693;SDS011;9477;51.414;10.362;2023-02-15T08:09:23;7.37;;;5.00;;
18693;SDS011;9477;51.414;10.362;2023-02-15T08:11:26;8.77;;;4.90;;
18693;SDS011;9477;51.414;10.362;2023-02-15T08:13:38;6.57;;;5.17;;
18693;SDS011;9477;51.414;10.362;2023-02-15T08:15:56;7.83;;;5.43;;
18693;SDS011;9477;51.414;10.362;2023-02-15T08:17:58;7.63;;;5.27;;
18693;SDS011;9477;51.414;10.362;2023-02-15T08:20:01;10.87;;;6.27;;
18693;SDS011;9477;51.414;10.362;2023-02-15T08:22:05;12.07;;;6.10;;
18693;SDS011;9477;51.414;10.362;2023-02-15T08:24:11;8.43;;;6.07;;
18693;SDS011;9477;51.414;10.362;2023-02-15T08:26:15;8.67;;;5.80;;
18693;SDS011;9477;51.414;10.362;2023-02-15T08:28:18;6.53;;;5.03;;
18693;SDS011;9477;51.414;10.362;2023-02-15T08:30:21;7.80;;;5.23;;
18693;SDS011;9477;51.414;10.362;2023-02-15T08:32:26;10.30;;;5.43;;
18693;SDS011;9477;51.414;10.362;2023-02-15T08:34:29;7.87;;;4.97;;
18693;SDS011;9477;51.414;10.362;2023-02-15T08:36:33;6.83;;;4.97;;
18693;SDS011;9477;51.414;10.362;2023-02-15T08:38:36;8.63;;;4.97;;
18693;SDS011;9477;51.414;10.362;2023-02-15T08:40:40;8.80;;;4.90;;
18693;SDS011;9477;51.414;10.362;2023-02-15T08:42:42;7.57;;;4.53;;
18693;SDS011;9477;51.414;10.362;2023-02-15T08:44:45;6.47;;;4.90;;
18693;SDS011;9477;51.414;10.362;2023-02-15T08:46:50;8.10;;;4.60;;
18693;SDS011;9477;51.414;10.362;2023-02-15T08:48:54;10.20;;;5.27;;
18693;SDS011;9477;51.414;10.362;2023-02-15T08:50:57;6.70;;;4.70;;
18693;SDS011;9477;51.414;10.362;2023-02-15T08:53:01;7.63;;;4.90;;
18693;SDS011;9477;51.414;10.362;2023-02-15T08:55:05;9.93;;;4.67;;
18693;SDS011;9477;51.414;10.362;2023-02-15T08:57:08;6.37;;;4.73;;
18693;SDS011;9477;51.414;10.362;2023-02-15T08:59:12;7.53;;;4.90;;
18693;SDS011;9477;51.414;10.362;2023-02-15T09:01:16;5.77;;;4.47;;
18693;SDS011;9477;51.414;10.362;2023-02-15T09:03:21;6.63;;;4.37;;
18693;SDS011;9477;51.414;10.362;2023-02-15T09:05:25;6.30;;;4.97;;
18693;SDS011;9477;51.414;10.362;2023-02-15T09:07:28;7.57;;;5.03;;
18693;SDS011;9477;51.414;10.362;2023-02-15T09:09:31;8.70;;;5.27;;
18693;SDS011;9477;51.414;10.362;2023-02-15T09:11:34;8.17;;;5.03;;
18693;SDS011;9477;51.414;10.362;2023-02-15T09:13:39;6.50;;;4.80;;
18693;SDS011;9477;51.414;10.362;2023-02-15T09:15:45;5.47;;;4.23;;
18693;SDS011;9477;51.414;10.362;2023-02-15T09:17:48;7.03;;;4.43;;
18693;SDS011;9477;51.414;10.362;2023-02-15T09:19:51;7.33;;;4.90;;
18693;SDS011;9477;51.414;10.362;2023-02-15T09:21:55;6.90;;;4.97;;
18693;SDS011;9477;51.414;10.362;2023-02-15T09:24:00;5.63;;;4.30;;
18693;SDS011;9477;51.414;10.362;2023-02-15T09:26:04;6.80;;;4.70;;
18693;SDS011;9477;51.414;10.362;2023-02-15T09:28:09;6.90;;;4.40;;
18693;SDS011;9477;51.414;10.362;2023-02-15T09:30:12;5.60;;;3.97;;
18693;SDS011;9477;51.414;10.362;2023-02-15T09:32:15;5.87;;;4.30;;
18693;SDS011;9477;51.414;10.362;2023-02-15T09:34:19;5.40;;;4.20;;
18693;SDS011;9477;51.414;10.362;2023-02-15T09:36:24;4.73;;;3.80;;
18693;SDS011;9477;51.414;10.362;2023-02-15T09:38:30;4.83;;;3.90;;
18693;SDS011;9477;51.414;10.362;2023-02-15T09:40:34;4.83;;;3.90;;
18693;SDS011;9477;51.414;10.362;2023-02-15T09:42:54;4.57;;;3.80;;
18693;SDS011;9477;51.414;10.362;2023-02-15T09:45:12;7.33;;;4.00;;
18693;SDS011;9477;51.414;10.362;2023-02-15T09:49:50;5.63;;;4.03;;
18693;SDS011;9477;51.414;10.362;2023-02-15T09:52:06;4.80;;;3.87;;
18693;SDS011;9477;51.414;10.362;2023-02-15T09:54:45;6.03;;;3.40;;
18693;SDS011;9477;51.414;10.362;2023-02-15T09:57:00;6.03;;;4.30;;
18693;SDS011;9477;51.414;10.362;2023-02-15T09:59:09;6.10;;;3.97;;
18693;SDS011;9477;51.414;10.362;2023-02-15T10:01:20;4.67;;;3.83;;
18693;SDS011;9477;51.414;10.362;2023-02-15T10:03:35;9.30;;;4.30;;
18693;SDS011;9477;51.414;10.362;2023-02-15T10:05:50;4.73;;;3.63;;
18693;SDS011;9477;51.414;10.362;2023-02-15T10:08:11;8.33;;;4.03;;
18693;SDS011;9477;51.414;10.362;2023-02-15T10:10:32;5.10;;;3.60;;
18693;SDS011;9477;51.414;10.362;2023-02-15T10:15:16;5.00;;;4.33;;
18693;SDS011;9477;51.414;10.362;2023-02-15T10:17:35;7.20;;;4.77;;
18693;SDS011;9477;51.414;10.362;2023-02-15T10:19:52;9.20;;;5.30;;
18693;SDS011;9477;51.414;10.362;2023-02-15T10:22:10;7.63;;;4.87;;
18693;SDS011;9477;51.414;10.362;2023-02-15T10:27:05;6.60;;;4.90;;
18693;SDS011;9477;51.414;10.362;2023-02-15T10:29:16;8.90;;;5.30;;
18693;SDS011;9477;51.414;10.362;2023-02-15T10:31:31;6.67;;;4.77;;
18693;SDS011;9477;51.414;10.362;2023-02-15T10:33:43;7.27;;;5.33;;
18693;SDS011;9477;51.414;10.362;2023-02-15T10:35:48;6.40;;;4.80;;
18693;SDS011;9477;51.414;10.362;2023-02-15T10:38:02;8.97;;;5.20;;
18693;SDS011;9477;51.414;10.362;2023-02-15T10:40:13;7.23;;;4.93;;
18693;SDS011;9477;51.414;10.362;2023-02-15T10:42:26;7.60;;;5.77;;
18693;SDS011;9477;51.414;10.362;2023-02-15T10:44:40;7.87;;;5.10;;
18693;SDS011;9477;51.414;10.362;2023-02-15T10:49:36;6.93;;;5.00;;
18693;SDS011;9477;51.414;10.362;2023-02-15T10:51:56;6.90;;;5.00;;
18693;SDS011;9477;51.414;10.362;2023-02-15T10:54:15;6.23;;;4.97;;
18693;SDS011;9477;51.414;10.362;2023-02-15T10:56:25;7.30;;;5.07;;
18693;SDS011;9477;51.414;10.362;2023-02-15T10:58:38;7.10;;;5.10;;
18693;SDS011;9477;51.414;10.362;2023-02-15T11:00:52;6.53;;;5.20;;
18693;SDS011;9477;51.414;10.362;2023-02-15T11:03:05;7.30;;;4.53;;
18693;SDS011;9477;51.414;10.362;2023-02-15T11:05:24;5.80;;;4.50;;
18693;SDS011;9477;51.414;10.362;2023-02-15T11:07:40;8.53;;;4.60;;
18693;SDS011;9477;51.414;10.362;2023-02-15T11:09:51;6.83;;;4.87;;
18693;SDS011;9477;51.414;10.362;2023-02-15T11:11:58;6.97;;;4.57;;
18693;SDS011;9477;51.414;10.362;2023-02-15T11:14:03;6.37;;;4.63;;
18693;SDS011;9477;51.414;10.362;2023-02-15T11:16:16;9.07;;;5.37;;
18693;SDS011;9477;51.414;10.362;2023-02-15T11:18:23;6.77;;;4.93;;
18693;SDS011;9477;51.414;10.362;2023-02-15T11:20:30;7.03;;;4.60;;
18693;SDS011;9477;51.414;10.362;2023-02-15T11:22:38;8.03;;;5.23;;
18693;SDS011;9477;51.414;10.362;2023-02-15T11:24:42;11.73;;;5.63;;
18693;SDS011;9477;51.414;10.362;2023-02-15T11:26:48;8.97;;;5.73;;
18693;SDS011;9477;51.414;10.362;2023-02-15T11:28:57;7.53;;;5.40;;
18693;SDS011;9477;51.414;10.362;2023-02-15T11:31:11;5.63;;;4.70;;
18693;SDS011;9477;51.414;10.362;2023-02-15T11:33:18;7.73;;;5.30;;
18693;SDS011;9477;51.414;10.362;2023-02-15T11:35:26;8.80;;;5.47;;
18693;SDS011;9477;51.414;10.362;2023-02-15T11:37:34;7.03;;;5.03;;
18693;SDS011;9477;51.414;10.362;2023-02-15T11:39:42;9.23;;;5.83;;
18693;SDS011;9477;51.414;10.362;2023-02-15T11:41:46;11.13;;;5.70;;
18693;SDS011;9477;51.414;10.362;2023-02-15T11:43:56;9.10;;;5.80;;
18693;SDS011;9477;51.414;10.362;2023-02-15T11:46:05;7.40;;;5.10;;
18693;SDS011;9477;51.414;10.362;2023-02-15T11:48:14;7.77;;;4.93;;
18693;SDS011;9477;51.414;10.362;2023-02-15T11:50:19;9.43;;;5.60;;
18693;SDS011;9477;51.414;10.362;2023-02-15T11:52:24;8.33;;;4.97;;
18693;SDS011;9477;51.414;10.362;2023-02-15T11:54:28;6.40;;;5.00;;
18693;SDS011;9477;51.414;10.362;2023-02-15T11:56:33;6.33;;;5.00;;
18693;SDS011;9477;51.414;10.362;2023-02-15T11:58:37;6.93;;;4.90;;
18693;SDS011;9477;51.414;10.362;2023-02-15T12:00:44;5.83;;;4.53;;
18693;SDS011;9477;51.414;10.362;2023-02-15T12:02:52;8.63;;;5.40;;
18693;SDS011;9477;51.414;10.362;2023-02-15T12:04:58;8.70;;;5.23;;
18693;SDS011;9477;51.414;10.362;2023-02-15T12:07:04;10.17;;;5.67;;
18693;SDS011;9477;51.414;10.362;2023-02-15T12:09:17;7.70;;;5.73;;
18693;SDS011;9477;51.414;10.362;2023-02-15T12:11:28;6.73;;;5.07;;
18693;SDS011;9477;51.414;10.362;2023-02-15T12:13:36;6.83;;;5.10;;
18693;SDS011;9477;51.414;10.362;2023-02-15T12:15:40;7.30;;;5.40;;
18693;SDS011;9477;51.414;10.362;2023-02-15T12:17:48;8.30;;;5.40;;
18693;SDS011;9477;51.414;10.362;2023-02-15T12:19:53;7.63;;;5.90;;
18693;SDS011;9477;51.414;10.362;2023-02-15T12:22:00;7.90;;;5.30;;
18693;SDS011;9477;51.414;10.362;2023-02-15T12:24:09;10.30;;;5.53;;
18693;SDS011;9477;51.414;10.362;2023-02-15T12:26:23;7.67;;;5.33;;
18693;SDS011;9477;51.414;10.362;2023-02-15T12:28:30;7.90;;;5.70;;
18693;SDS011;9477;51.414;10.362;2023-02-15T12:30:35;8.40;;;5.90;;
18693;SDS011;9477;51.414;10.362;2023-02-15T12:32:46;9.47;;;6.13;;
18693;SDS011;9477;51.414;10.362;2023-02-15T12:34:51;8.63;;;6.47;;
18693;SDS011;9477;51.414;10.362;2023-02-15T12:37:09;9.20;;;6.20;;
18693;SDS011;9477;51.414;10.362;2023-02-15T12:39:18;8.20;;;5.87;;
18693;SDS011;9477;51.414;10.362;2023-02-15T12:41:23;7.33;;;5.80;;
18693;SDS011;9477;51.414;10.362;2023-02-15T12:43:31;7.37;;;5.93;;
18693;SDS011;9477;51.414;10.362;2023-02-15T12:45:36;8.00;;;6.00;;
18693;SDS011;9477;51.414;10.362;2023-02-15T12:47:39;7.40;;;6.13;;
18693;SDS011;9477;51.414;10.362;2023-02-15T12:49:42;7.90;;;6.23;;
18693;SDS011;9477;51.414;10.362;2023-02-15T12:51:49;8.67;;;6.70;;
18693;SDS011;9477;51.414;10.362;2023-02-15T12:53:55;9.07;;;6.27;;
18693;SDS011;9477;51.414;10.362;2023-02-15T12:55:58;8.27;;;6.43;;